New Oxford, Pennsylvania
Current Conditions -  °F | °C
As of 5:53 PM on Friday 19 Dec 2014 (Local Time) from KTHV Reporting Station
Clear Clear  
Wind Chill: 33°   Ceiling: Unl
Heat Index: 33°   Visibility: 10mi
Dew Point: 21°   Wind: 3mph
Humidity: 61%   Direction: 330°NNW
Pressure: 30.17"   Gusts: NA
Location:  39.86°N, 77.06°W
Report Text: KTHV 192253Z AUTO 33003KT 10SM CLR 01/M06 A3017 RMK AO2 SLP222 T00061061
Loading
Personal Weather Stations






























Interactive Weather Map New forecast layout! Learn more

10-Day Weather Forecast

Advertisements
Track Severe Weather on mobile